Time;durP1;ratioP1;P1;durP2;ratioP2;P2;SDS_P1;SDS_P2;PMS_P1;PMS_P2;Temp;Humidity;BMP_temperature;BMP_pressure;BME280_temperature;BME280_humidity;BME280_pressure;Samples;Min_cycle;Max_cycle;Signal;HPM_P1;HPM_P2
2023/04/24 00:00:57;;;;;;;6.30;6.00;;;11.50;71.60;;;;;;6264860;28;20249;-87
2023/04/24 00:04:01;;;;;;;7.00;6.60;;;11.50;71.60;;;;;;6265450;28;20238;-85
2023/04/24 00:07:06;;;;;;;6.73;6.23;;;11.50;71.70;;;;;;6254880;28;20234;-87
2023/04/24 00:10:10;;;;;;;6.67;6.37;;;11.50;71.90;;;;;;6254473;28;20230;-87
2023/04/24 00:13:15;;;;;;;6.67;6.30;;;11.50;71.90;;;;;;6239054;28;20752;-86
2023/04/24 00:16:18;;;;;;;6.73;6.23;;;11.40;72.10;;;;;;6243150;28;20840;-85
2023/04/24 00:19:22;;;;;;;5.87;5.57;;;11.40;72.20;;;;;;6237963;28;20242;-86
2023/04/24 00:22:25;;;;;;;7.63;7.07;;;11.40;72.10;;;;;;6242787;28;20388;-85
2023/04/24 00:25:28;;;;;;;7.17;6.77;;;11.40;72.30;;;;;;6245877;28;20231;-85
2023/04/24 00:28:33;;;;;;;6.67;6.40;;;11.40;72.30;;;;;;6250180;28;20239;-85
2023/04/24 00:31:37;;;;;;;6.40;6.20;;;11.40;72.30;;;;;;6259839;28;20242;-85
2023/04/24 00:34:40;;;;;;;7.67;7.07;;;11.40;72.30;;;;;;6255792;28;20254;-84
2023/04/24 00:37:43;;;;;;;7.57;7.07;;;11.30;72.50;;;;;;6260784;28;20234;-85
2023/04/24 00:40:47;;;;;;;7.13;6.83;;;11.40;72.60;;;;;;6248858;28;20596;-86
2023/04/24 00:43:52;;;;;;;7.10;6.70;;;11.30;72.70;;;;;;6264701;28;21498;-84
2023/04/24 00:46:56;;;;;;;6.83;6.43;;;11.30;72.90;;;;;;6263273;28;20233;-86
2023/04/24 00:49:59;;;;;;;7.27;6.87;;;11.30;73.00;;;;;;6257207;28;20387;-86
2023/04/24 00:53:02;;;;;;;7.20;6.80;;;11.30;73.20;;;;;;6265627;28;20245;-85
2023/04/24 00:56:06;;;;;;;7.07;6.70;;;11.20;73.20;;;;;;6266153;28;20241;-85
2023/04/24 00:59:11;;;;;;;7.90;7.40;;;11.20;73.30;;;;;;6260252;28;20257;-86
2023/04/24 01:02:15;;;;;;;7.07;6.77;;;11.10;73.60;;;;;;6263267;28;20456;-84
2023/04/24 01:05:19;;;;;;;7.63;7.13;;;11.10;73.60;;;;;;6247950;28;20553;-84
2023/04/24 01:08:24;;;;;;;7.80;7.40;;;11.10;73.70;;;;;;6246835;28;20392;-86
2023/04/24 01:11:27;;;;;;;7.70;7.20;;;11.20;73.60;;;;;;6257774;28;20245;-84
2023/04/24 01:14:32;;;;;;;7.63;7.10;;;11.20;73.70;;;;;;6266136;28;20237;-85
2023/04/24 01:17:35;;;;;;;7.60;7.20;;;11.10;73.80;;;;;;6257940;28;20303;-85
2023/04/24 01:20:41;;;;;;;7.27;6.97;;;11.10;73.90;;;;;;6254430;28;20731;-85
2023/04/24 01:23:46;;;;;;;7.10;6.80;;;11.10;74.00;;;;;;6244682;28;20759;-86
2023/04/24 01:26:49;;;;;;;7.20;6.73;;;11.10;74.10;;;;;;6239147;28;20238;-85
2023/04/24 01:29:53;;;;;;;7.30;6.70;;;11.10;74.20;;;;;;6241635;28;20322;-85
2023/04/24 01:32:57;;;;;;;7.80;7.37;;;11.10;74.20;;;;;;6238855;28;20230;-84
2023/04/24 01:36:00;;;;;;;7.40;7.00;;;11.10;74.10;;;;;;6232825;28;20230;-85
2023/04/24 01:39:05;;;;;;;6.90;6.60;;;11.10;74.00;;;;;;6237918;28;20575;-84
2023/04/24 01:42:08;;;;;;;7.17;6.87;;;11.10;74.10;;;;;;6249936;28;20249;-86
2023/04/24 01:45:13;;;;;;;6.67;6.47;;;11.10;74.10;;;;;;6236940;28;20296;-86
2023/04/24 01:48:16;;;;;;;7.23;6.83;;;11.10;74.10;;;;;;6241028;28;20406;-84
2023/04/24 01:51:19;;;;;;;7.23;6.93;;;11.10;74.10;;;;;;6263252;28;20238;-85
2023/04/24 01:54:24;;;;;;;8.33;7.77;;;11.10;74.20;;;;;;6254782;28;20248;-84
2023/04/24 01:57:27;;;;;;;7.43;7.13;;;11.10;74.30;;;;;;6256522;28;20238;-85
2023/04/24 02:00:30;;;;;;;7.70;7.30;;;11.10;74.30;;;;;;6264027;28;20234;-86
2023/04/24 02:03:33;;;;;;;8.27;7.73;;;11.10;74.40;;;;;;6255329;28;20234;-84
2023/04/24 02:06:37;;;;;;;7.70;7.20;;;11.00;74.70;;;;;;6255059;28;20629;-85
2023/04/24 02:09:42;;;;;;;7.40;6.90;;;11.00;74.80;;;;;;6253907;28;20600;-84
2023/04/24 02:12:45;;;;;;;7.60;7.20;;;11.00;74.70;;;;;;6261567;28;20245;-86
2023/04/24 02:15:48;;;;;;;7.27;6.93;;;11.00;74.80;;;;;;6240117;28;20234;-84
2023/04/24 02:18:51;;;;;;;8.07;7.60;;;11.00;74.90;;;;;;6252185;28;20238;-84
2023/04/24 02:21:54;;;;;;;7.20;6.80;;;10.90;75.10;;;;;;6271924;28;20214;-85
2023/04/24 02:24:59;;;;;;;7.10;6.77;;;10.90;75.00;;;;;;6288069;28;20225;-83
2023/04/24 02:28:02;;;;;;;7.37;6.90;;;10.90;75.00;;;;;;6279979;28;20214;-85
2023/04/24 02:31:06;;;;;;;8.27;7.87;;;10.90;75.00;;;;;;6288104;28;20255;-85
2023/04/24 02:34:09;;;;;;;7.67;7.27;;;10.90;75.10;;;;;;6281802;28;20279;-84
2023/04/24 02:37:12;;;;;;;7.90;7.30;;;11.00;75.10;;;;;;6290426;28;20234;-85
2023/04/24 02:40:16;;;;;;;8.93;8.40;;;10.90;75.40;;;;;;6292280;28;20229;-84
2023/04/24 02:43:20;;;;;;;8.07;7.40;;;10.90;75.40;;;;;;6273469;28;20304;-84
2023/04/24 02:46:26;;;;;;;8.60;8.10;;;10.90;75.50;;;;;;6298521;28;20229;-84
2023/04/24 02:49:29;;;;;;;8.03;7.63;;;11.00;75.50;;;;;;6291506;28;20238;-85
2023/04/24 02:52:32;;;;;;;7.53;7.23;;;11.00;75.50;;;;;;6284435;28;20238;-84
2023/04/24 02:55:37;;;;;;;9.00;8.50;;;11.00;75.60;;;;;;6268519;28;20233;-85
2023/04/24 02:58:40;;;;;;;7.87;7.47;;;11.00;75.70;;;;;;6275048;28;20234;-85
2023/04/24 03:01:43;;;;;;;7.40;7.00;;;11.10;75.60;;;;;;6272194;28;20678;-84
2023/04/24 03:04:47;;;;;;;8.93;8.37;;;11.10;75.60;;;;;;6266698;28;20230;-85
2023/04/24 03:07:52;;;;;;;8.70;8.10;;;11.10;75.70;;;;;;6279157;28;20233;-83
2023/04/24 03:10:57;;;;;;;8.50;8.00;;;11.10;75.90;;;;;;6276696;28;20245;-85
2023/04/24 03:14:00;;;;;;;9.13;8.33;;;11.10;76.10;;;;;;6270753;28;20229;-85
2023/04/24 03:17:04;;;;;;;9.13;8.63;;;11.30;75.90;;;;;;6270248;28;20272;-86
2023/04/24 03:20:09;;;;;;;8.90;8.37;;;11.30;75.90;;;;;;6284424;28;20278;-83
2023/04/24 03:23:12;;;;;;;8.83;8.33;;;11.50;75.60;;;;;;6301811;28;20233;-83
2023/04/24 03:26:16;;;;;;;9.73;8.93;;;11.50;75.40;;;;;;6300068;28;20228;-85
2023/04/24 03:29:19;;;;;;;9.10;8.50;;;11.60;75.10;;;;;;6299853;28;20277;-83
2023/04/24 03:32:23;;;;;;;9.17;8.60;;;11.70;74.90;;;;;;6282169;28;20267;-85
2023/04/24 03:35:27;;;;;;;12.07;8.50;;;11.60;74.90;;;;;;6291761;28;20221;-83
2023/04/24 03:38:30;;;;;;;9.10;8.40;;;11.60;75.00;;;;;;6300651;28;20284;-83
2023/04/24 03:41:35;;;;;;;8.77;8.20;;;11.60;74.90;;;;;;6297430;28;20231;-81
2023/04/24 03:44:38;;;;;;;9.00;8.33;;;11.60;75.00;;;;;;6286639;28;20238;-82
2023/04/24 03:47:42;;;;;;;9.00;8.43;;;11.50;75.10;;;;;;6266740;28;20777;-84
2023/04/24 03:50:46;;;;;;;9.17;8.57;;;11.50;75.10;;;;;;6278168;28;20248;-84
2023/04/24 03:53:49;;;;;;;9.03;8.40;;;11.50;75.00;;;;;;6267759;28;20256;-84
2023/04/24 03:56:53;;;;;;;9.00;8.40;;;11.60;74.90;;;;;;6281486;28;20241;-84
2023/04/24 03:59:56;;;;;;;8.70;8.17;;;11.50;75.00;;;;;;6261565;28;20682;-83
2023/04/24 04:03:00;;;;;;;8.37;7.90;;;11.50;75.20;;;;;;6259938;28;20234;-83
2023/04/24 04:06:03;;;;;;;8.83;8.23;;;11.50;75.20;;;;;;6263521;28;20240;-81
2023/04/24 04:09:08;;;;;;;9.37;8.87;;;11.50;75.40;;;;;;6263205;28;20226;-83
2023/04/24 04:12:12;;;;;;;9.27;8.67;;;11.50;75.30;;;;;;6249776;28;20318;-83
2023/04/24 04:15:17;;;;;;;9.47;8.87;;;11.50;75.30;;;;;;6256183;28;20318;-83
2023/04/24 04:18:20;;;;;;;9.13;8.43;;;11.50;75.20;;;;;;6249924;28;20854;-84
2023/04/24 04:21:23;;;;;;;9.40;8.90;;;11.50;75.10;;;;;;6239506;28;20496;-82
2023/04/24 04:24:26;;;;;;;9.10;8.50;;;11.60;75.10;;;;;;6254957;28;20470;-84
2023/04/24 04:27:34;;;;;;;8.63;8.13;;;11.60;75.10;;;;;;6256430;28;20228;-81
2023/04/24 04:30:38;;;;;;;8.57;8.17;;;11.70;75.00;;;;;;6281771;28;20234;-84
2023/04/24 04:33:41;;;;;;;9.43;8.80;;;11.70;74.90;;;;;;6240864;28;20361;-84
2023/04/24 04:36:46;;;;;;;8.77;8.30;;;11.70;74.80;;;;;;6250692;28;20239;-84
2023/04/24 04:39:49;;;;;;;8.60;8.10;;;11.70;74.80;;;;;;6241135;28;20454;-82
2023/04/24 04:42:53;;;;;;;8.53;8.03;;;11.70;75.00;;;;;;6234651;28;20235;-83
2023/04/24 04:45:57;;;;;;;9.33;8.63;;;11.70;74.70;;;;;;6254922;28;20348;-84
2023/04/24 04:49:01;;;;;;;9.13;8.50;;;11.70;74.70;;;;;;6282753;28;20241;-82
2023/04/24 04:52:04;;;;;;;8.00;7.60;;;11.70;74.70;;;;;;6269896;28;20238;-82
2023/04/24 04:55:08;;;;;;;8.67;8.07;;;11.70;74.80;;;;;;6258968;28;20309;-83
2023/04/24 04:58:13;;;;;;;8.70;8.10;;;11.80;74.70;;;;;;6263873;28;20233;-83
2023/04/24 05:01:17;;;;;;;9.43;8.83;;;11.80;74.60;;;;;;6254661;28;20238;-82
2023/04/24 05:04:20;;;;;;;8.57;7.97;;;11.90;74.40;;;;;;6264354;28;20513;-81
2023/04/24 05:07:24;;;;;;;8.47;7.97;;;11.80;74.50;;;;;;6278313;28;20275;-82
2023/04/24 05:10:28;;;;;;;9.00;8.30;;;11.80;74.60;;;;;;6260539;28;20770;-81
2023/04/24 05:13:32;;;;;;;8.40;7.90;;;11.80;74.50;;;;;;6263313;28;20646;-82
2023/04/24 05:16:43;;;;;;;7.73;7.33;;;11.90;74.50;;;;;;6244208;28;20249;-83
2023/04/24 05:19:46;;;;;;;8.47;7.97;;;12.00;74.40;;;;;;6251515;28;20261;-82
2023/04/24 05:22:49;;;;;;;8.00;7.33;;;12.00;74.00;;;;;;6248661;28;20241;-79
2023/04/24 05:25:52;;;;;;;8.47;7.70;;;12.10;73.80;;;;;;6249756;28;20384;-82
2023/04/24 05:28:56;;;;;;;7.23;6.83;;;12.20;73.50;;;;;;6239698;28;20745;-82
2023/04/24 05:32:00;;;;;;;6.97;6.57;;;12.20;73.60;;;;;;6239538;28;20726;-81
2023/04/24 05:35:03;;;;;;;6.63;6.23;;;12.30;73.30;;;;;;6245870;28;20568;-83
2023/04/24 05:38:07;;;;;;;6.20;5.90;;;12.40;72.70;;;;;;6259006;28;20226;-82
2023/04/24 05:41:10;;;;;;;5.63;5.37;;;12.50;72.50;;;;;;6260377;28;20230;-82
2023/04/24 05:44:14;;;;;;;5.73;5.40;;;12.50;72.20;;;;;;6262103;28;20238;-83
2023/04/24 05:47:17;;;;;;;5.23;4.97;;;12.70;71.40;;;;;;6244143;28;20230;-81
2023/04/24 05:50:20;;;;;;;4.10;4.00;;;12.70;71.10;;;;;;6234374;28;20287;-81
2023/04/24 05:53:24;;;;;;;4.47;4.27;;;12.80;71.00;;;;;;6257627;28;20256;-80
2023/04/24 05:56:27;;;;;;;4.53;4.40;;;12.90;70.10;;;;;;6254962;28;20237;-81
2023/04/24 05:59:32;;;;;;;4.87;4.30;;;13.00;69.70;;;;;;6257701;28;20269;-80
2023/04/24 06:02:35;;;;;;;3.87;3.77;;;13.00;69.80;;;;;;6253592;28;20389;-83
2023/04/24 06:05:39;;;;;;;3.90;3.80;;;13.00;69.60;;;;;;6249678;28;20230;-82
2023/04/24 06:08:43;;;;;;;3.77;3.67;;;13.10;69.20;;;;;;6261153;28;20234;-82
2023/04/24 06:11:47;;;;;;;3.73;3.63;;;13.20;69.10;;;;;;6251493;28;20234;-80
2023/04/24 06:14:51;;;;;;;3.50;3.20;;;13.30;68.60;;;;;;6258685;28;20245;-81
2023/04/24 06:17:57;;;;;;;3.67;3.47;;;13.60;67.80;;;;;;6254314;28;20748;-81
2023/04/24 06:21:00;;;;;;;4.37;3.70;;;13.70;67.60;;;;;;6241081;28;20250;-81
2023/04/24 06:24:04;;;;;;;4.07;3.77;;;13.90;67.00;;;;;;6241733;28;20227;-84
2023/04/24 06:27:07;;;;;;;3.53;3.30;;;14.10;66.40;;;;;;6251466;28;20236;-81
2023/04/24 06:30:12;;;;;;;3.43;3.33;;;14.00;66.30;;;;;;6257537;28;20237;-82
2023/04/24 06:33:17;;;;;;;4.00;3.90;;;14.10;66.00;;;;;;6255831;28;20268;-83
2023/04/24 06:36:24;;;;;;;3.70;3.50;;;13.80;66.80;;;;;;6243785;28;20238;-81
2023/04/24 06:39:27;;;;;;;3.60;3.40;;;13.80;66.50;;;;;;6252235;28;20875;-80
2023/04/24 06:42:30;;;;;;;3.37;3.27;;;13.70;66.50;;;;;;6251198;28;20279;-80
2023/04/24 06:45:35;;;;;;;3.80;3.30;;;13.90;66.20;;;;;;6252009;28;20885;-81
2023/04/24 06:48:38;;;;;;;3.40;3.30;;;14.10;66.00;;;;;;6252118;28;20234;-81
2023/04/24 06:51:41;;;;;;;3.10;2.90;;;14.30;65.00;;;;;;6263555;28;20249;-83
2023/04/24 06:54:45;;;;;;;3.13;2.93;;;14.30;64.80;;;;;;6262804;28;20245;-82
2023/04/24 06:57:49;;;;;;;2.73;2.63;;;14.40;65.10;;;;;;6259626;28;20234;-80
2023/04/24 07:00:54;;;;;;;2.80;2.70;;;14.60;64.10;;;;;;6257501;28;20238;-81
2023/04/24 07:03:57;;;;;;;2.70;2.70;;;14.90;63.90;;;;;;6259324;28;20274;-80
2023/04/24 07:07:04;;;;;;;2.80;2.70;;;15.00;62.70;;;;;;6260211;28;20249;-81
2023/04/24 07:10:08;;;;;;;2.70;2.50;;;15.00;62.90;;;;;;6252312;28;20234;-79
2023/04/24 07:13:11;;;;;;;3.03;2.83;;;15.20;62.50;;;;;;6265543;28;20303;-81
2023/04/24 07:16:16;;;;;;;2.47;2.40;;;15.30;62.50;;;;;;6262103;28;20323;-80
2023/04/24 07:19:19;;;;;;;2.50;2.40;;;15.60;61.60;;;;;;6273691;28;20566;-81
2023/04/24 07:22:22;;;;;;;2.27;2.17;;;15.70;60.70;;;;;;6263185;28;20249;-80
2023/04/24 07:25:25;;;;;;;2.30;2.30;;;15.70;59.70;;;;;;6256759;28;20233;-81
2023/04/24 07:28:30;;;;;;;2.00;2.00;;;15.60;59.90;;;;;;6265927;28;20245;-80
2023/04/24 07:31:35;;;;;;;2.20;2.10;;;15.70;59.50;;;;;;6267934;28;20379;-81
2023/04/24 07:34:38;;;;;;;1.90;1.90;;;15.80;58.70;;;;;;6284701;28;20231;-81
2023/04/24 07:37:45;;;;;;;3.40;1.80;;;15.80;58.70;;;;;;6275483;28;20847;-80
2023/04/24 07:40:48;;;;;;;1.70;1.70;;;15.80;57.40;;;;;;6251206;28;20351;-82
2023/04/24 07:43:52;;;;;;;2.40;2.20;;;15.60;57.80;;;;;;6262836;28;20618;-82
2023/04/24 07:46:57;;;;;;;1.80;1.70;;;15.50;58.00;;;;;;6272522;28;20627;-81
2023/04/24 07:50:00;;;;;;;1.80;1.70;;;15.40;57.80;;;;;;6275752;28;20484;-81
2023/04/24 07:53:03;;;;;;;1.90;1.73;;;15.50;58.50;;;;;;6270606;28;21208;-82
2023/04/24 07:56:07;;;;;;;2.00;1.80;;;15.60;58.20;;;;;;6274096;28;20340;-80
2023/04/24 07:59:10;;;;;;;1.73;1.73;;;15.80;56.50;;;;;;6276934;28;20237;-80
2023/04/24 08:02:15;;;;;;;1.40;1.40;;;15.80;56.40;;;;;;6251120;28;20782;-80
2023/04/24 08:05:18;;;;;;;1.67;1.67;;;15.80;56.70;;;;;;6254951;28;20230;-81
2023/04/24 08:08:23;;;;;;;2.67;1.70;;;16.10;57.40;;;;;;6249351;28;20288;-81
2023/04/24 08:11:27;;;;;;;1.73;1.63;;;16.40;56.20;;;;;;6243045;28;20286;-81
2023/04/24 08:14:30;;;;;;;1.87;1.77;;;16.40;55.90;;;;;;6245966;28;20242;-81
2023/04/24 08:17:35;;;;;;;1.80;1.70;;;16.60;55.00;;;;;;6252291;28;20242;-80
2023/04/24 08:20:38;;;;;;;1.63;1.63;;;16.60;54.20;;;;;;6262283;28;20725;-82
2023/04/24 08:23:41;;;;;;;1.53;1.53;;;16.50;54.00;;;;;;6261118;28;20253;-81
2023/04/24 08:26:44;;;;;;;1.97;1.97;;;16.40;54.50;;;;;;6268784;28;20288;-81
2023/04/24 08:29:48;;;;;;;1.57;1.57;;;16.40;54.30;;;;;;6279830;28;20746;-81
2023/04/24 08:32:52;;;;;;;1.70;1.60;;;16.40;53.90;;;;;;6268118;28;20440;-82
2023/04/24 08:35:55;;;;;;;1.73;1.63;;;16.40;54.80;;;;;;6252900;28;20642;-83
2023/04/24 08:38:58;;;;;;;2.00;1.90;;;16.50;54.50;;;;;;6259594;28;20686;-81
2023/04/24 08:42:07;;;;;;;1.80;1.80;;;16.70;55.10;;;;;;6266002;28;20694;-81
2023/04/24 08:45:12;;;;;;;1.80;1.80;;;16.40;55.10;;;;;;6262255;28;20670;-81
2023/04/24 08:48:17;;;;;;;1.70;1.70;;;16.50;54.70;;;;;;6247762;28;20712;-81
2023/04/24 08:51:33;;;;;;;1.90;1.90;;;16.60;54.90;;;;;;6251839;28;20239;-82
2023/04/24 08:54:37;;;;;;;1.63;1.63;;;17.00;55.20;;;;;;6265835;28;20245;-81
2023/04/24 08:57:41;;;;;;;1.50;1.50;;;17.20;54.90;;;;;;6264867;28;20241;-81
2023/04/24 09:00:46;;;;;;;1.50;1.50;;;17.40;53.70;;;;;;6268678;28;20244;-81
2023/04/24 09:03:53;;;;;;;1.90;1.80;;;17.50;53.40;;;;;;6260555;28;20238;-82
2023/04/24 09:06:58;;;;;;;1.50;1.50;;;17.50;53.40;;;;;;6268671;28;20300;-81
2023/04/24 09:10:04;;;;;;;1.40;1.40;;;17.50;52.50;;;;;;6253096;28;20246;-82
2023/04/24 09:13:08;;;;;;;1.70;1.70;;;17.50;53.40;;;;;;6239852;28;20249;-80
2023/04/24 09:16:12;;;;;;;1.60;1.60;;;17.40;53.50;;;;;;6250456;28;20317;-81
2023/04/24 09:19:17;;;;;;;1.50;1.50;;;17.30;54.00;;;;;;6248678;28;20249;-82
2023/04/24 09:22:22;;;;;;;2.00;1.80;;;17.20;55.20;;;;;;6241182;28;20298;-82
2023/04/24 09:25:31;;;;;;;1.80;1.70;;;16.90;55.90;;;;;;6243966;28;20236;-81
2023/04/24 09:28:37;;;;;;;1.97;1.90;;;16.40;56.20;;;;;;6266065;28;20613;-81
2023/04/24 09:31:41;;;;;;;2.53;1.77;;;16.30;56.40;;;;;;6259051;28;20303;-81
2023/04/24 09:34:48;;;;;;;1.73;1.73;;;16.40;56.20;;;;;;6255850;28;20316;-81
2023/04/24 09:37:51;;;;;;;1.50;1.50;;;16.70;56.70;;;;;;6234540;28;20718;-82
2023/04/24 09:40:54;;;;;;;1.80;1.80;;;16.70;56.60;;;;;;6246513;28;20269;-80
2023/04/24 09:44:02;;;;;;;1.80;1.80;;;16.90;56.40;;;;;;6250567;28;20239;-82
2023/04/24 09:47:10;;;;;;;1.70;1.70;;;17.00;56.60;;;;;;6272407;28;20422;-82
2023/04/24 09:50:17;;;;;;;1.70;1.70;;;17.00;56.80;;;;;;6270748;28;20223;-83
2023/04/24 09:53:26;;;;;;;2.83;1.97;;;17.20;55.90;;;;;;6258936;28;20304;-82
2023/04/24 09:56:29;;;;;;;1.87;1.87;;;17.00;56.50;;;;;;6240346;28;20245;-80
2023/04/24 09:59:32;;;;;;;1.70;1.70;;;17.00;56.40;;;;;;6240944;28;20289;-81
2023/04/24 10:02:38;;;;;;;1.90;1.90;;;17.20;55.30;;;;;;6240336;28;20601;-80
2023/04/24 10:05:43;;;;;;;2.03;1.93;;;17.20;55.30;;;;;;6247554;28;20242;-81
2023/04/24 10:08:47;;;;;;;2.33;1.87;;;17.00;55.70;;;;;;6244239;28;20250;-81
2023/04/24 10:11:53;;;;;;;1.83;1.83;;;17.20;55.60;;;;;;6243851;28;20263;-83
2023/04/24 10:14:57;;;;;;;1.70;1.70;;;17.10;56.40;;;;;;6241717;28;20235;-81
2023/04/24 10:18:00;;;;;;;1.80;1.70;;;17.20;55.70;;;;;;6245300;28;20238;-80
2023/04/24 10:21:06;;;;;;;1.70;1.70;;;17.50;55.20;;;;;;6236847;28;20284;-81
2023/04/24 10:24:09;;;;;;;1.83;1.83;;;17.40;55.90;;;;;;6245847;28;20242;-82
2023/04/24 10:27:15;;;;;;;1.80;1.70;;;17.00;55.70;;;;;;6245275;28;20321;-81
2023/04/24 10:30:19;;;;;;;1.70;1.70;;;17.20;56.10;;;;;;6253633;28;20234;-82
2023/04/24 10:33:24;;;;;;;1.90;1.90;;;17.30;56.40;;;;;;6239433;28;20249;-82
2023/04/24 10:36:32;;;;;;;2.03;2.03;;;17.20;56.10;;;;;;6241836;28;20746;-81
2023/04/24 10:39:37;;;;;;;2.20;2.00;;;17.30;55.80;;;;;;6261063;28;20491;-81
2023/04/24 10:42:42;;;;;;;1.97;1.90;;;17.10;55.80;;;;;;6245902;28;20238;-82
2023/04/24 10:46:02;;;;;;;1.80;1.80;;;17.10;55.90;;;;;;6250211;28;20248;-80
2023/04/24 10:49:08;;;;;;;1.60;1.60;;;17.20;55.90;;;;;;6262187;28;20234;-82
2023/04/24 10:52:13;;;;;;;2.00;2.00;;;17.00;55.50;;;;;;6242412;28;20239;-82
2023/04/24 10:55:16;;;;;;;1.87;1.87;;;16.70;56.00;;;;;;6238605;28;20230;-80
2023/04/24 10:58:23;;;;;;;2.00;2.00;;;16.60;56.10;;;;;;6245224;28;20235;-81
2023/04/24 11:01:27;;;;;;;2.00;2.00;;;16.60;56.20;;;;;;6244511;28;20520;-83
2023/04/24 11:04:32;;;;;;;3.60;3.33;;;16.70;56.40;;;;;;6250323;28;20249;-79
2023/04/24 11:08:08;;;;;;;2.00;1.90;;;16.70;56.10;;;;;;6240929;28;20231;-82
2023/04/24 11:11:14;;;;;;;1.70;1.70;;;16.80;56.20;;;;;;6249210;28;20253;-82
2023/04/24 11:14:17;;;;;;;1.90;1.90;;;17.00;56.60;;;;;;6239198;28;20331;-82
2023/04/24 11:17:30;;;;;;;2.53;2.43;;;17.20;56.00;;;;;;6235757;28;20245;-80
2023/04/24 11:20:33;;;;;;;3.43;3.30;;;17.70;54.70;;;;;;6273868;28;20272;-82
2023/04/24 11:23:37;;;;;;;2.70;2.60;;;18.00;54.10;;;;;;6248357;28;21036;-81
2023/04/24 11:26:42;;;;;;;2.13;1.97;;;18.10;54.20;;;;;;6253079;28;20627;-81
2023/04/24 11:29:48;;;;;;;2.43;2.43;;;17.90;54.60;;;;;;6264619;28;20234;-80
2023/04/24 11:32:52;;;;;;;3.07;2.97;;;17.80;54.30;;;;;;6261715;28;20227;-80
2023/04/24 11:35:55;;;;;;;1.80;1.80;;;17.60;54.40;;;;;;6270208;28;20759;-82
2023/04/24 11:38:59;;;;;;;2.00;1.97;;;17.50;54.80;;;;;;6267065;28;20234;-81
2023/04/24 11:42:06;;;;;;;2.80;2.60;;;17.00;55.90;;;;;;6267853;28;20388;-80
2023/04/24 11:45:11;;;;;;;2.50;2.40;;;16.40;59.80;;;;;;6266785;28;20249;-81
2023/04/24 11:48:20;;;;;;;2.20;2.20;;;16.00;62.00;;;;;;6270262;28;20241;-80
2023/04/24 11:51:26;;;;;;;2.30;2.23;;;16.00;62.10;;;;;;6249214;28;20239;-81
2023/04/24 11:54:38;;;;;;;2.20;2.00;;;16.00;62.60;;;;;;6245163;28;20235;-82
2023/04/24 11:57:44;;;;;;;2.40;2.30;;;16.00;62.10;;;;;;6266063;28;20257;-80
2023/04/24 12:00:56;;;;;;;2.00;2.00;;;16.40;61.50;;;;;;6266653;28;20315;-83
2023/04/24 12:04:01;;;;;;;2.13;2.00;;;16.60;61.30;;;;;;6285753;28;20242;-80
2023/04/24 12:07:05;;;;;;;2.23;2.10;;;16.80;59.90;;;;;;6277733;28;20264;-83
2023/04/24 12:10:09;;;;;;;2.37;2.27;;;16.80;60.20;;;;;;6268283;28;20236;-80
2023/04/24 12:13:14;;;;;;;2.60;2.37;;;16.80;59.80;;;;;;6279366;28;20238;-81
2023/04/24 12:16:17;;;;;;;2.70;2.60;;;16.90;59.80;;;;;;6276098;28;20265;-82
2023/04/24 12:19:22;;;;;;;2.10;2.03;;;17.20;59.30;;;;;;6272313;28;20257;-81
2023/04/24 12:22:25;;;;;;;2.20;2.20;;;17.20;59.40;;;;;;6271307;28;20580;-81
2023/04/24 12:25:30;;;;;;;2.53;2.20;;;17.60;59.40;;;;;;6261699;28;20242;-82
2023/04/24 12:28:38;;;;;;;2.13;2.13;;;17.80;58.10;;;;;;6260333;28;20898;-81
2023/04/24 12:31:41;;;;;;;2.20;2.20;;;17.80;57.40;;;;;;6262817;28;20239;-81
2023/04/24 12:34:44;;;;;;;2.73;2.57;;;17.70;56.60;;;;;;6258838;28;20365;-81
2023/04/24 12:37:48;;;;;;;3.67;2.10;;;18.00;56.40;;;;;;6265248;28;20238;-81
2023/04/24 12:41:03;;;;;;;5.77;2.10;;;18.10;53.70;;;;;;6257844;28;20256;-82
2023/04/24 12:44:12;;;;;;;2.30;2.20;;;18.20;53.50;;;;;;6267680;28;20253;-81
2023/04/24 12:47:14;;;;;;;1.60;1.60;;;18.10;52.90;;;;;;6269526;28;20719;-84
2023/04/24 12:50:18;;;;;;;2.10;2.10;;;18.30;52.20;;;;;;6263250;28;20587;-80
2023/04/24 12:53:21;;;;;;;1.97;1.80;;;18.40;50.70;;;;;;6260723;28;20246;-81
2023/04/24 12:56:24;;;;;;;1.93;1.73;;;18.20;48.50;;;;;;6271605;28;20226;-81
2023/04/24 12:59:29;;;;;;;1.70;1.70;;;18.30;48.20;;;;;;6241930;28;20819;-80
2023/04/24 13:02:32;;;;;;;1.70;1.70;;;18.10;47.20;;;;;;6239882;28;20382;-82
2023/04/24 13:05:35;;;;;;;1.80;1.70;;;18.10;47.90;;;;;;6235866;28;20235;-83
2023/04/24 13:08:38;;;;;;;1.67;1.63;;;18.20;47.60;;;;;;6241777;28;20245;-83
2023/04/24 13:11:41;;;;;;;1.70;1.70;;;18.40;47.00;;;;;;6242191;28;20254;-81
2023/04/24 13:14:46;;;;;;;1.97;1.87;;;18.50;46.10;;;;;;6241937;28;20318;-82
2023/04/24 13:17:49;;;;;;;1.87;1.77;;;18.40;46.90;;;;;;6249940;28;20306;-81
2023/04/24 13:20:52;;;;;;;1.73;1.73;;;18.60;44.80;;;;;;6247617;28;20241;-80
2023/04/24 13:23:55;;;;;;;1.60;1.60;;;18.70;44.20;;;;;;6234929;28;20488;-79
2023/04/24 13:26:58;;;;;;;3.50;1.80;;;18.70;45.30;;;;;;6237150;28;20238;-80
2023/04/24 13:30:03;;;;;;;2.60;1.70;;;18.80;44.80;;;;;;6259590;28;20234;-83
2023/04/24 13:33:06;;;;;;;1.80;1.73;;;18.60;45.60;;;;;;6238413;28;20245;-81
2023/04/24 13:36:09;;;;;;;1.63;1.63;;;18.70;45.30;;;;;;6246474;28;20234;-82
2023/04/24 13:39:12;;;;;;;1.63;1.63;;;18.40;44.40;;;;;;6248095;28;20234;-80
2023/04/24 13:42:15;;;;;;;1.77;1.70;;;18.20;44.50;;;;;;6242452;28;20325;-81
2023/04/24 13:45:20;;;;;;;3.70;1.93;;;18.00;44.10;;;;;;6248687;28;20234;-80
2023/04/24 13:48:27;;;;;;;1.80;1.80;;;18.10;44.00;;;;;;6262281;28;20234;-82
2023/04/24 13:51:30;;;;;;;1.70;1.70;;;18.20;43.70;;;;;;6265953;28;20237;-80
2023/04/24 13:54:33;;;;;;;7.43;2.30;;;18.30;44.00;;;;;;6251427;28;20230;-82
2023/04/24 13:57:37;;;;;;;1.83;1.70;;;18.20;45.20;;;;;;6261252;28;20237;-82
2023/04/24 14:00:41;;;;;;;3.90;3.53;;;18.40;43.80;;;;;;6264890;28;20240;-79
2023/04/24 14:03:44;;;;;;;3.10;1.80;;;18.60;43.50;;;;;;6259003;28;20410;-81
2023/04/24 14:06:48;;;;;;;1.83;1.80;;;18.60;44.40;;;;;;6261328;28;20289;-81
2023/04/24 14:09:51;;;;;;;1.67;1.67;;;18.80;43.60;;;;;;6247904;28;20453;-81
2023/04/24 14:12:54;;;;;;;2.43;1.70;;;18.50;43.90;;;;;;6259076;28;20238;-82
2023/04/24 14:16:01;;;;;;;1.90;1.80;;;18.20;44.10;;;;;;6259076;28;20736;-79
2023/04/24 14:19:05;;;;;;;2.43;1.77;;;18.20;44.70;;;;;;6251131;28;20234;-81
2023/04/24 14:22:08;;;;;;;1.93;1.93;;;18.00;44.60;;;;;;6265877;28;20291;-81
2023/04/24 14:25:11;;;;;;;3.53;1.77;;;17.80;44.70;;;;;;6251674;28;20238;-81
2023/04/24 14:28:14;;;;;;;1.90;1.90;;;17.50;45.00;;;;;;6245560;28;20236;-79
2023/04/24 14:31:18;;;;;;;1.70;1.60;;;17.20;45.30;;;;;;6238844;28;20284;-78
2023/04/24 14:34:22;;;;;;;1.80;1.80;;;17.40;44.70;;;;;;6236377;28;20337;-79
2023/04/24 14:37:25;;;;;;;1.80;1.70;;;17.40;45.80;;;;;;6239305;28;20237;-80
2023/04/24 14:40:28;;;;;;;4.23;2.00;;;17.70;44.90;;;;;;6240499;28;20261;-80
2023/04/24 14:43:51;;;;;;;2.37;2.20;;;17.80;44.20;;;;;;6246786;28;20238;-79
2023/04/24 14:46:55;;;;;;;2.73;1.77;;;17.60;44.10;;;;;;6244090;28;20252;-82
2023/04/24 14:49:59;;;;;;;2.00;1.90;;;17.50;44.20;;;;;;6255174;28;20234;-82
2023/04/24 14:53:02;;;;;;;2.93;2.00;;;17.20;45.70;;;;;;6239172;28;20800;-84
2023/04/24 14:56:06;;;;;;;2.03;1.93;;;17.20;45.70;;;;;;6233599;28;20750;-82
2023/04/24 14:59:09;;;;;;;2.13;1.90;;;17.20;45.20;;;;;;6245108;28;20230;-83
2023/04/24 15:02:16;;;;;;;2.27;2.23;;;17.20;45.70;;;;;;6248375;28;20241;-80
2023/04/24 15:05:24;;;;;;;3.03;2.17;;;17.00;45.10;;;;;;6248599;28;20249;-84
2023/04/24 15:08:28;;;;;;;1.97;1.97;;;16.90;45.30;;;;;;6264333;28;20792;-82
2023/04/24 15:11:33;;;;;;;2.00;1.90;;;16.80;46.10;;;;;;6275231;28;20245;-82
2023/04/24 15:14:36;;;;;;;6.07;2.10;;;16.90;46.60;;;;;;6265503;28;20611;-83
2023/04/24 15:17:40;;;;;;;2.83;2.07;;;17.00;46.20;;;;;;6274767;28;20317;-78
2023/04/24 15:20:45;;;;;;;2.20;2.10;;;17.00;46.60;;;;;;6272712;28;20473;-79
2023/04/24 15:23:48;;;;;;;2.27;2.20;;;16.80;46.80;;;;;;6288539;28;20309;-81
2023/04/24 15:26:52;;;;;;;2.30;2.20;;;16.80;47.50;;;;;;6291930;28;20232;-81
2023/04/24 15:29:55;;;;;;;3.70;2.27;;;16.80;47.10;;;;;;6292275;28;20229;-80
2023/04/24 15:33:01;;;;;;;2.27;2.27;;;16.90;45.70;;;;;;6283737;28;20232;-80
2023/04/24 15:36:04;;;;;;;2.37;2.13;;;16.90;45.80;;;;;;6253686;28;20384;-78
2023/04/24 15:39:09;;;;;;;2.60;2.40;;;16.70;45.50;;;;;;6287152;28;20233;-81
2023/04/24 15:42:12;;;;;;;2.33;2.30;;;16.50;45.70;;;;;;6282357;28;20241;-81
2023/04/24 15:45:15;;;;;;;2.30;2.30;;;16.20;46.90;;;;;;6283541;28;20623;-76
2023/04/24 15:48:20;;;;;;;2.10;2.10;;;16.00;46.80;;;;;;6266139;28;20229;-78
2023/04/24 15:51:23;;;;;;;2.13;2.13;;;16.00;48.30;;;;;;6253678;28;20239;-78
2023/04/24 15:54:26;;;;;;;2.40;2.33;;;16.00;47.20;;;;;;6263838;28;20234;-77
2023/04/24 15:57:30;;;;;;;2.27;2.27;;;16.00;47.30;;;;;;6257359;28;20728;-77
2023/04/24 16:00:34;;;;;;;2.37;2.20;;;15.80;47.60;;;;;;6258327;28;20261;-78